KDAA/DAA METAR and TAF weather

Enter ICAO airport designator
Station Type Date Time Source
KDAA METAR 2019/04/18 19:56 UTC NOAA

KDAA 181956Z AUTO 18007KT 10SM CLR 26/14 A2987 RMK AO2 SLP118 T02600138


Station Type Date Time Source
KDAA Decoded METAR 2019/04/18 19:56 UTC NOAA

Fort Belvoir, VA, United States (KDAA) 38-43N 077-11W
Apr 18, 2019 - 03:56 PM EDT / 2019.04.18 1956 UTC
Wind: from the S (180 degrees) at 8 MPH (7 KT):0
Visibility: 10 mile(s):0
Sky conditions: clear
Temperature: 78.8 F (26.0 C)
Dew Point: 56.8 F (13.8 C)
Relative Humidity: 46%
Pressure (altimeter): 29.87 in. Hg (1011 hPa)
ob: KDAA 181956Z AUTO 18007KT 10SM CLR 26/14 A2987 RMK AO2 SLP118 T02600138
cycle: 20

Station Type Date Time Source
KDAA TAF 2019/04/18 18:24 UTC NOAA

TAF
AMD KDAA 181818Z 1818/1923 19009KT 9999 FEW160 510103 QNH2982INS
TEMPO 1818/1905 19012G18KT
BECMG 1904/1905 20012KT 9999 BKN025 510092 QNH2976INS
BECMG 1913/1914 19012G18KT 8000 -SHRA BKN010 OVC025 530104 QNH2967INS
BECMG 1914/1915 18012G18KT 8000 -SHRA BKN020 OVC035 510106 QNH2958INS
TEMPO 1918/1923 18025G35KT -TSRA OVC020CB TX27/1821Z TN20/1906Z

Example: see airport list